Accueil
METAR-TAF:

METAR-TAF

Aéroports :

NWS Office

Ponape, Micronésie

latitude: 06-58N, longitude: 158-13E, altitude: 39 m

Observation

Le bulletin a été fait il y a 28 minutes, à 21:52 UTC
Vent 4 kt de est
Température 26°C
Humidité 94%
Pression 1012 hPa
Visibilité: 22.5 km
Nuages fragmentés à une hauteur de 1700 ft, Cumulus congestus.
Ciel couvert à une hauteur de 13000 ft
faibles averses de pluie

METAR: PTTP 192152Z 09004KT 14SM -SHRA BKN017TCU OVC130 26/25 A2988 RMK TCU ALQDS SLP117 T02590253

Heure: 09:20 (22:20 UTC)


TAF: absent

Observations et prévisions météorologiques de plus de 4000 aéroports (messages METAR et TAF).

Les stations disponibles sont représentées par des disques jaunes et rouges sur la carte.

Passer la souris dessus pour voir le nom de la station.

Cliquer dessus pour voir les observations et prévisions météorologiques.

Pour changer de carte: cliquez sur les boutons verts avec une croix noire pour zoomer, sur le bouton vert avec un tiret pour effectuer un zoom arrière, ou sur les flèches vertes pour les cartes adjacentes.


METAR-TAF: